createdAt,value
2018-07-03T00:00:29.846Z,18.80
2018-07-03T00:02:56.977Z,18.80
2018-07-03T00:05:24.130Z,18.90
2018-07-03T00:07:51.279Z,18.80
2018-07-03T00:10:18.407Z,18.70
2018-07-03T00:12:45.753Z,18.60
2018-07-03T00:15:13.013Z,18.60
2018-07-03T00:17:40.195Z,18.60
2018-07-03T00:20:07.863Z,18.60
2018-07-03T00:22:34.977Z,18.40
2018-07-03T00:25:02.103Z,18.10
2018-07-03T00:27:29.241Z,17.90
2018-07-03T00:32:23.543Z,17.70
2018-07-03T00:34:50.775Z,18.00
2018-07-03T00:37:17.927Z,17.80
2018-07-03T00:39:45.103Z,17.60
2018-07-03T00:42:12.363Z,17.50
2018-07-03T00:44:39.505Z,17.80
2018-07-03T00:47:06.630Z,17.80
2018-07-03T00:49:33.768Z,17.70
2018-07-03T00:52:00.892Z,17.90
2018-07-03T00:54:28.000Z,17.80
2018-07-03T00:56:55.110Z,17.80
2018-07-03T00:59:22.248Z,18.00
2018-07-03T01:01:49.371Z,17.90
2018-07-03T01:04:16.686Z,17.80
2018-07-03T01:06:43.942Z,17.80
2018-07-03T01:09:11.159Z,17.60
2018-07-03T01:11:39.099Z,17.60
2018-07-03T01:14:06.259Z,17.30
2018-07-03T01:16:33.373Z,17.10
2018-07-03T01:19:00.552Z,16.90
2018-07-03T01:21:27.727Z,16.90
2018-07-03T01:23:54.861Z,16.90
2018-07-03T01:26:22.131Z,16.90
2018-07-03T01:28:49.235Z,17.10
2018-07-03T01:31:16.731Z,17.00
2018-07-03T01:33:43.907Z,17.10
2018-07-03T01:36:11.406Z,17.00
2018-07-03T01:38:38.566Z,17.00
2018-07-03T01:41:05.744Z,17.10
2018-07-03T01:43:32.883Z,17.00
2018-07-03T01:46:00.029Z,16.80
2018-07-03T01:48:27.171Z,16.70
2018-07-03T01:53:21.447Z,16.50
2018-07-03T01:55:48.593Z,16.40
2018-07-03T01:58:15.825Z,16.40
2018-07-03T02:00:43.145Z,16.70
2018-07-03T02:03:10.331Z,16.80
2018-07-03T02:05:37.562Z,16.80
2018-07-03T02:08:04.692Z,16.70
2018-07-03T02:10:31.811Z,16.50
2018-07-03T02:12:58.966Z,16.50
2018-07-03T02:15:26.067Z,16.50
2018-07-03T02:17:53.206Z,16.40
2018-07-03T02:20:20.351Z,16.30
2018-07-03T02:22:47.467Z,16.40
2018-07-03T02:25:14.655Z,16.40
2018-07-03T02:27:41.825Z,16.40
2018-07-03T02:30:08.935Z,16.30
2018-07-03T02:32:36.095Z,16.30
2018-07-03T02:35:03.788Z,16.20
2018-07-03T02:37:30.954Z,16.10
2018-07-03T02:39:58.055Z,16.00
2018-07-03T02:42:25.213Z,16.10
2018-07-03T02:44:52.349Z,16.20
2018-07-03T02:47:19.471Z,16.20
2018-07-03T02:49:46.923Z,16.10
2018-07-03T02:52:14.207Z,16.20
2018-07-03T02:54:41.428Z,16.30
2018-07-03T02:57:08.541Z,16.20
2018-07-03T02:59:35.771Z,16.20
2018-07-03T03:02:02.896Z,16.30
2018-07-03T03:04:30.011Z,16.20
2018-07-03T03:06:57.176Z,16.20
2018-07-03T03:09:24.327Z,16.20
2018-07-03T03:11:51.580Z,16.00
2018-07-03T03:14:18.699Z,16.00
2018-07-03T03:16:45.826Z,16.00
2018-07-03T03:19:12.966Z,15.90
2018-07-03T03:21:40.083Z,15.90
2018-07-03T03:24:07.236Z,15.90
2018-07-03T03:26:34.384Z,15.80
2018-07-03T03:29:01.598Z,16.00
2018-07-03T03:31:28.895Z,15.90
2018-07-03T03:33:56.018Z,16.00
2018-07-03T03:36:23.135Z,15.90
2018-07-03T03:38:50.346Z,15.70
2018-07-03T03:41:17.492Z,15.80
2018-07-03T03:43:44.614Z,15.60
2018-07-03T03:46:11.782Z,15.60
2018-07-03T03:48:38.938Z,15.60
2018-07-03T03:51:06.088Z,15.70
2018-07-03T03:53:33.284Z,15.70
2018-07-03T03:56:00.654Z,15.70
2018-07-03T03:58:27.882Z,15.60
2018-07-03T04:00:55.079Z,15.70
2018-07-03T04:03:22.215Z,15.80
2018-07-03T04:05:49.335Z,15.70
2018-07-03T04:08:16.456Z,15.70
2018-07-03T04:10:43.567Z,15.80
2018-07-03T04:13:10.719Z,15.80
2018-07-03T04:18:05.114Z,16.00
2018-07-03T04:20:32.364Z,16.10
2018-07-03T04:22:59.523Z,16.10
2018-07-03T04:25:26.674Z,16.10
2018-07-03T04:27:53.842Z,16.10
2018-07-03T04:30:20.967Z,16.30
2018-07-03T04:32:48.088Z,16.20
2018-07-03T04:35:15.195Z,16.30
2018-07-03T04:37:42.357Z,16.40
2018-07-03T04:42:36.653Z,16.60
2018-07-03T04:45:04.016Z,16.70
2018-07-03T04:47:31.227Z,16.70
2018-07-03T04:49:58.491Z,16.80
2018-07-03T04:52:25.626Z,16.90
2018-07-03T04:54:52.738Z,17.00
2018-07-03T04:57:19.846Z,17.30
2018-07-03T04:59:46.967Z,17.80
2018-07-03T05:02:14.337Z,19.70
2018-07-03T05:04:41.443Z,22.40
2018-07-03T05:07:08.550Z,24.80
2018-07-03T05:09:42.599Z,26.00
2018-07-03T05:12:09.759Z,27.30
2018-07-03T05:14:36.882Z,28.10
2018-07-03T05:17:04.175Z,29.20
2018-07-03T05:19:31.360Z,28.60
2018-07-03T05:21:58.968Z,30.20
2018-07-03T05:24:26.106Z,30.30
2018-07-03T05:26:54.259Z,31.90
2018-07-03T05:29:21.394Z,32.70
2018-07-03T05:31:48.689Z,33.80
2018-07-03T05:34:15.830Z,34.50
2018-07-03T05:36:43.026Z,35.10
2018-07-03T05:39:11.511Z,35.10
2018-07-03T05:41:38.883Z,36.00
2018-07-03T05:44:06.063Z,36.50
2018-07-03T05:46:33.246Z,36.60
2018-07-03T05:49:00.622Z,36.40
2018-07-03T05:53:55.008Z,36.70
2018-07-03T05:56:22.181Z,36.40
2018-07-03T05:58:49.265Z,38.40
2018-07-03T06:01:16.410Z,39.80
2018-07-03T06:03:43.721Z,39.50
2018-07-03T06:06:10.715Z,37.50
2018-07-03T06:08:37.835Z,37.20
2018-07-03T06:11:05.802Z,37.60
2018-07-03T06:13:32.978Z,38.50
2018-07-03T06:16:00.415Z,38.70
2018-07-03T06:18:27.712Z,38.30
2018-07-03T06:20:55.040Z,37.20
2018-07-03T06:23:22.171Z,37.40
2018-07-03T06:25:49.293Z,37.10
2018-07-03T06:28:16.414Z,39.80
2018-07-03T06:30:43.551Z,41.00
2018-07-03T06:33:10.688Z,40.90
2018-07-03T06:35:37.818Z,41.10
2018-07-03T06:38:05.020Z,41.50
2018-07-03T06:40:32.220Z,40.30
2018-07-03T06:42:59.450Z,42.00
2018-07-03T06:45:26.573Z,42.10
2018-07-03T06:47:54.242Z,41.90
2018-07-03T06:50:21.401Z,43.20
2018-07-03T06:52:48.639Z,44.10
2018-07-03T07:00:09.984Z,44.30
2018-07-03T07:02:37.151Z,46.00
2018-07-03T07:05:04.581Z,45.50
2018-07-03T07:07:31.731Z,43.40
2018-07-03T07:09:58.965Z,43.50
2018-07-03T07:12:26.111Z,45.10
2018-07-03T07:14:53.255Z,43.70
2018-07-03T07:17:20.423Z,42.70
2018-07-03T07:19:47.584Z,44.90
2018-07-03T07:22:14.762Z,45.30
2018-07-03T07:24:41.900Z,45.90
2018-07-03T07:27:09.307Z,45.40
2018-07-03T07:29:36.488Z,44.80
2018-07-03T07:32:03.763Z,43.00
2018-07-03T07:34:31.159Z,42.50
2018-07-03T07:36:58.927Z,42.90
2018-07-03T07:39:26.024Z,42.20
2018-07-03T07:41:53.193Z,43.30
2018-07-03T07:44:20.322Z,44.90
2018-07-03T07:46:47.475Z,44.70
2018-07-03T07:49:14.617Z,44.20
2018-07-03T07:51:41.742Z,42.60
2018-07-03T07:54:08.966Z,41.50
2018-07-03T07:56:36.151Z,41.80
2018-07-03T07:59:03.531Z,44.30
2018-07-03T08:01:30.781Z,46.50
2018-07-03T08:03:58.012Z,45.00
2018-07-03T08:06:25.259Z,44.40
2018-07-03T08:08:52.568Z,44.20
2018-07-03T08:11:19.691Z,44.70
2018-07-03T08:13:46.828Z,46.40
2018-07-03T08:16:13.943Z,44.00
2018-07-03T08:18:47.843Z,43.60
2018-07-03T08:21:15.002Z,45.70
2018-07-03T08:23:42.130Z,47.40
2018-07-03T08:26:09.266Z,45.10
2018-07-03T08:28:36.659Z,45.20
2018-07-03T08:31:04.138Z,44.40
2018-07-03T08:33:31.666Z,45.10
2018-07-03T08:35:58.866Z,46.70
2018-07-03T08:38:26.004Z,46.10
2018-07-03T08:40:53.143Z,45.10
2018-07-03T08:43:20.258Z,43.90
2018-07-03T08:45:47.363Z,43.20
2018-07-03T08:48:14.563Z,41.00
2018-07-03T08:50:41.699Z,40.30
2018-07-03T08:53:08.852Z,41.50
2018-07-03T08:55:36.194Z,42.80
2018-07-03T08:58:03.613Z,42.20
2018-07-03T09:00:30.947Z,42.70
2018-07-03T09:02:58.407Z,40.80
2018-07-03T09:05:25.562Z,41.50
2018-07-03T09:07:52.675Z,41.60
2018-07-03T09:10:19.851Z,41.30
2018-07-03T09:12:46.974Z,40.90
2018-07-03T09:15:14.086Z,42.00
2018-07-03T09:17:41.274Z,43.40
2018-07-03T09:20:08.425Z,43.50
2018-07-03T09:22:35.571Z,44.00
2018-07-03T09:25:02.857Z,43.40
2018-07-03T09:27:30.115Z,42.00
2018-07-03T09:29:57.319Z,41.40
2018-07-03T09:32:24.471Z,40.50
2018-07-03T09:34:51.603Z,40.10
2018-07-03T09:37:19.301Z,39.30
2018-07-03T09:39:46.480Z,37.60
2018-07-03T09:42:13.627Z,37.30
2018-07-03T09:44:40.756Z,37.10
2018-07-03T09:47:08.103Z,33.60
2018-07-03T09:49:35.251Z,31.40
2018-07-03T09:52:02.448Z,29.80
2018-07-03T09:54:29.690Z,28.70
2018-07-03T09:56:56.882Z,28.50
2018-07-03T09:59:24.021Z,28.50
2018-07-03T10:01:51.171Z,28.70
2018-07-03T10:04:18.287Z,28.40
2018-07-03T10:06:45.433Z,28.20
2018-07-03T10:09:12.704Z,27.90
2018-07-03T10:11:40.656Z,27.90
2018-07-03T10:14:08.400Z,27.70
2018-07-03T10:16:35.567Z,27.90
2018-07-03T10:19:02.918Z,28.00
2018-07-03T10:21:30.345Z,27.60
2018-07-03T10:23:57.493Z,27.40
2018-07-03T10:26:24.655Z,27.20
2018-07-03T10:28:52.166Z,27.10
2018-07-03T10:31:19.349Z,27.00
2018-07-03T10:33:46.469Z,27.00
2018-07-03T10:36:13.607Z,26.80
2018-07-03T10:38:40.740Z,27.00
2018-07-03T10:43:35.226Z,27.10
2018-07-03T10:46:02.643Z,27.00
2018-07-03T10:48:29.874Z,27.10
2018-07-03T10:53:24.219Z,26.90
2018-07-03T10:55:51.398Z,27.00
2018-07-03T10:58:18.536Z,26.90
2018-07-03T11:00:45.673Z,27.10
2018-07-03T11:03:12.866Z,26.80
2018-07-03T11:05:39.995Z,27.00
2018-07-03T11:08:07.102Z,27.10
2018-07-03T11:10:34.275Z,27.30
2018-07-03T11:13:01.484Z,27.10
2018-07-03T11:15:28.659Z,27.30
2018-07-03T11:17:55.792Z,27.30
2018-07-03T11:20:22.908Z,27.30
2018-07-03T11:22:50.066Z,27.50
2018-07-03T11:25:17.214Z,27.60
2018-07-03T11:27:44.374Z,27.70
2018-07-03T11:30:11.508Z,27.80
2018-07-03T11:32:38.659Z,27.40
2018-07-03T11:35:06.051Z,27.30
2018-07-03T11:37:33.288Z,27.40
2018-07-03T11:40:01.905Z,27.60
2018-07-03T11:42:29.260Z,27.60
2018-07-03T11:44:56.424Z,27.70
2018-07-03T11:47:23.817Z,27.50
2018-07-03T11:49:50.952Z,27.50
2018-07-03T11:52:18.079Z,27.60
2018-07-03T11:54:45.234Z,27.70
2018-07-03T11:57:12.386Z,27.80
2018-07-03T11:59:39.539Z,27.70
2018-07-03T12:02:06.763Z,27.80
2018-07-03T12:04:33.955Z,27.70
2018-07-03T12:07:01.190Z,27.70
2018-07-03T12:09:28.388Z,27.70
2018-07-03T12:11:55.504Z,27.60
2018-07-03T12:14:22.675Z,27.50
2018-07-03T12:19:16.991Z,27.70
2018-07-03T12:21:44.163Z,27.70
2018-07-03T12:24:11.387Z,27.80
2018-07-03T12:26:38.578Z,27.90
2018-07-03T12:29:05.970Z,27.80
2018-07-03T12:31:33.140Z,27.90
2018-07-03T12:34:00.343Z,28.00
2018-07-03T12:36:27.549Z,28.10
2018-07-03T12:38:54.699Z,28.10
2018-07-03T12:41:21.831Z,28.10
2018-07-03T12:43:48.947Z,28.10
2018-07-03T12:46:16.119Z,28.00
2018-07-03T12:48:43.230Z,27.90
2018-07-03T12:51:10.446Z,28.00
2018-07-03T12:53:37.605Z,28.10
2018-07-03T12:56:04.913Z,27.80
2018-07-03T12:58:32.162Z,27.70
2018-07-03T13:00:59.341Z,27.50
2018-07-03T13:03:26.530Z,27.50
2018-07-03T13:08:20.890Z,27.50
2018-07-03T13:10:48.017Z,27.40
2018-07-03T13:13:15.285Z,27.40
2018-07-03T13:15:42.473Z,27.50
2018-07-03T13:18:15.345Z,27.70
2018-07-03T13:20:42.489Z,27.70
2018-07-03T13:23:09.971Z,27.80
2018-07-03T13:25:37.411Z,27.90
2018-07-03T13:28:04.635Z,27.90
2018-07-03T13:30:31.846Z,27.90
2018-07-03T13:32:59.113Z,28.00
2018-07-03T13:35:26.251Z,27.90
2018-07-03T13:37:53.627Z,27.90
2018-07-03T13:40:20.865Z,27.70
2018-07-03T13:42:47.990Z,27.60
2018-07-03T13:45:15.143Z,27.60
2018-07-03T13:47:42.327Z,27.50
2018-07-03T13:50:09.546Z,27.60
2018-07-03T13:52:36.700Z,27.80
2018-07-03T13:55:04.241Z,27.70
2018-07-03T13:57:31.661Z,27.80
2018-07-03T13:59:58.958Z,27.90
2018-07-03T14:02:26.152Z,28.00
2018-07-03T14:04:53.327Z,28.00
2018-07-03T14:07:20.486Z,28.10
2018-07-03T14:09:47.646Z,28.10
2018-07-03T14:12:14.766Z,28.10
2018-07-03T14:14:41.947Z,28.20
2018-07-03T14:17:09.125Z,28.10
2018-07-03T14:19:36.290Z,28.20
2018-07-03T14:26:57.901Z,28.40
2018-07-03T14:29:25.036Z,28.40
2018-07-03T14:31:52.162Z,28.50
2018-07-03T14:34:19.288Z,28.50
2018-07-03T14:36:46.460Z,28.60
2018-07-03T14:39:13.831Z,28.50
2018-07-03T14:41:41.520Z,28.40
2018-07-03T14:44:08.880Z,28.50
2018-07-03T14:46:36.258Z,28.50
2018-07-03T14:49:03.812Z,28.60
2018-07-03T14:51:31.006Z,28.60
2018-07-03T14:53:58.836Z,28.60
2018-07-03T14:56:26.013Z,28.60
2018-07-03T14:58:53.204Z,28.60
2018-07-03T15:01:20.409Z,28.60
2018-07-03T15:06:15.707Z,28.50
2018-07-03T15:08:42.825Z,28.70
2018-07-03T15:11:09.997Z,28.80
2018-07-03T15:13:37.125Z,28.90
2018-07-03T15:16:04.505Z,28.90
2018-07-03T15:18:37.410Z,28.90
2018-07-03T15:21:04.664Z,28.90
2018-07-03T15:23:31.971Z,28.90
2018-07-03T15:25:59.145Z,28.90
2018-07-03T15:28:26.280Z,28.90
2018-07-03T15:33:20.563Z,28.80
2018-07-03T15:35:47.675Z,28.80
2018-07-03T15:38:14.807Z,28.80
2018-07-03T15:40:41.953Z,28.90
2018-07-03T15:43:09.073Z,28.90
2018-07-03T15:45:36.246Z,28.90
2018-07-03T15:48:03.451Z,28.80
2018-07-03T15:50:30.643Z,28.80
2018-07-03T15:52:57.800Z,28.80
2018-07-03T15:55:25.064Z,28.60
2018-07-03T15:57:52.960Z,28.60
2018-07-03T16:00:20.581Z,28.60
2018-07-03T16:02:59.455Z,28.60
2018-07-03T16:05:38.225Z,28.50
2018-07-03T16:09:14.839Z,28.50
2018-07-03T16:11:42.041Z,28.60
2018-07-03T16:14:10.138Z,28.50
2018-07-03T16:16:37.360Z,28.50
2018-07-03T16:19:10.555Z,28.40
2018-07-03T16:21:37.747Z,28.40
2018-07-03T16:24:04.993Z,28.30
2018-07-03T16:26:32.166Z,28.40
2018-07-03T16:28:59.441Z,28.40
2018-07-03T16:31:26.599Z,28.30
2018-07-03T16:33:54.779Z,28.20
2018-07-03T16:36:21.902Z,28.20
2018-07-03T16:38:49.173Z,28.20
2018-07-03T16:41:16.287Z,28.20
2018-07-03T16:43:43.430Z,28.10
2018-07-03T16:46:10.602Z,28.00
2018-07-03T16:48:38.482Z,27.90
2018-07-03T16:51:05.691Z,27.90
2018-07-03T16:53:32.923Z,28.00
2018-07-03T16:56:00.212Z,28.00
2018-07-03T16:58:27.386Z,28.10
2018-07-03T17:00:54.559Z,28.10
2018-07-03T17:03:21.830Z,28.20
2018-07-03T17:05:48.973Z,28.30
2018-07-03T17:08:16.087Z,28.40
2018-07-03T17:10:43.247Z,28.50
2018-07-03T17:13:10.397Z,28.50
2018-07-03T17:15:37.568Z,28.50
2018-07-03T17:18:04.773Z,28.60
2018-07-03T17:20:31.958Z,28.60
2018-07-03T17:25:26.271Z,28.50
2018-07-03T17:27:53.447Z,28.50
2018-07-03T17:30:20.582Z,28.40
2018-07-03T17:32:47.699Z,28.40
2018-07-03T17:35:14.862Z,28.30
2018-07-03T17:37:41.991Z,28.10
2018-07-03T17:40:20.679Z,28.00
2018-07-03T17:44:07.707Z,27.80
2018-07-03T17:46:35.003Z,27.70
2018-07-03T17:49:02.189Z,27.70
2018-07-03T17:51:29.620Z,27.50
2018-07-03T17:53:56.750Z,27.50
2018-07-03T17:56:23.902Z,27.50
2018-07-03T17:58:51.038Z,27.40
2018-07-03T18:01:18.192Z,27.20
2018-07-03T18:03:45.379Z,27.10
2018-07-03T18:06:12.531Z,27.20
2018-07-03T18:08:39.690Z,27.10
2018-07-03T18:11:06.830Z,27.00
2018-07-03T18:13:33.994Z,26.90
2018-07-03T18:16:01.174Z,26.80
2018-07-03T18:18:28.538Z,26.60
2018-07-03T18:20:55.680Z,26.50
2018-07-03T18:23:22.790Z,26.50
2018-07-03T18:25:49.909Z,26.50
2018-07-03T18:28:17.079Z,26.50
2018-07-03T18:30:44.248Z,26.20
2018-07-03T18:33:11.358Z,26.20
2018-07-03T18:35:38.574Z,26.00
2018-07-03T18:38:05.851Z,26.00
2018-07-03T18:40:33.010Z,25.90
2018-07-03T18:43:00.225Z,25.80
2018-07-03T18:45:27.421Z,25.60
2018-07-03T18:47:54.563Z,25.60
2018-07-03T18:50:21.714Z,25.60
2018-07-03T18:52:48.875Z,25.70
2018-07-03T18:55:16.026Z,25.80
2018-07-03T18:57:43.155Z,25.90
2018-07-03T19:00:10.348Z,25.80
2018-07-03T19:02:37.522Z,25.70
2018-07-03T19:05:04.744Z,25.60
2018-07-03T19:07:31.951Z,25.50
2018-07-03T19:10:00.196Z,25.30
2018-07-03T19:12:27.412Z,25.20
2018-07-03T19:14:54.579Z,25.00
2018-07-03T19:17:21.727Z,24.80
2018-07-03T19:19:48.894Z,24.60
2018-07-03T19:22:16.027Z,24.50
2018-07-03T19:27:10.407Z,24.50
2018-07-03T19:29:37.562Z,24.60
2018-07-03T19:32:04.794Z,24.50
2018-07-03T19:34:31.934Z,24.40
2018-07-03T19:36:59.355Z,24.30
2018-07-03T19:39:26.507Z,24.20
2018-07-03T19:41:53.706Z,24.10
2018-07-03T19:44:20.836Z,24.00
2018-07-03T19:46:48.031Z,23.90
2018-07-03T19:49:15.237Z,23.90
2018-07-03T19:51:42.380Z,23.80
2018-07-03T19:54:09.542Z,23.60
2018-07-03T19:56:36.780Z,23.50
2018-07-03T19:59:04.271Z,23.40
2018-07-03T20:01:31.576Z,23.30
2018-07-03T20:03:58.811Z,23.20
2018-07-03T20:06:25.970Z,23.00
2018-07-03T20:08:53.138Z,23.00
2018-07-03T20:11:20.286Z,22.90
2018-07-03T20:13:47.472Z,22.80
2018-07-03T20:16:14.630Z,22.70
2018-07-03T20:18:41.748Z,22.60
2018-07-03T20:21:08.907Z,22.30
2018-07-03T20:23:36.082Z,22.20
2018-07-03T20:26:03.295Z,22.10
2018-07-03T20:28:30.448Z,22.00
2018-07-03T20:30:57.642Z,21.90
2018-07-03T20:33:24.918Z,21.90
2018-07-03T20:35:52.035Z,21.90
2018-07-03T20:38:19.408Z,21.80
2018-07-03T20:40:58.955Z,21.80
2018-07-03T20:43:27.428Z,21.80
2018-07-03T20:45:54.748Z,21.70
2018-07-03T20:48:22.283Z,21.70
2018-07-03T20:50:49.449Z,21.70
2018-07-03T20:53:16.616Z,21.60
2018-07-03T20:55:43.788Z,21.60
2018-07-03T20:58:11.041Z,21.60
2018-07-03T21:00:38.186Z,21.70
2018-07-03T21:03:05.410Z,21.60
2018-07-03T21:05:32.694Z,21.60
2018-07-03T21:07:59.881Z,21.50
2018-07-03T21:10:27.048Z,21.40
2018-07-03T21:12:54.147Z,21.40
2018-07-03T21:15:21.266Z,21.40
2018-07-03T21:17:48.414Z,21.20
2018-07-03T21:20:15.570Z,21.10
2018-07-03T21:22:42.703Z,21.00
2018-07-03T21:25:09.834Z,20.90
2018-07-03T21:27:36.956Z,20.80
2018-07-03T21:30:04.189Z,20.70
2018-07-03T21:34:58.575Z,20.60
2018-07-03T21:37:25.686Z,20.60
2018-07-03T21:39:52.783Z,20.50
2018-07-03T21:42:19.890Z,20.40
2018-07-03T21:44:46.998Z,20.50
2018-07-03T21:47:14.136Z,20.40
2018-07-03T21:49:41.262Z,20.40
2018-07-03T21:52:08.368Z,20.20
2018-07-03T21:54:35.510Z,20.30
2018-07-03T21:57:02.973Z,20.30
2018-07-03T21:59:30.152Z,20.30
2018-07-03T22:01:57.324Z,20.20
2018-07-03T22:04:24.467Z,20.20
2018-07-03T22:06:51.655Z,20.20
2018-07-03T22:09:18.965Z,20.20
2018-07-03T22:11:46.096Z,20.10
2018-07-03T22:14:13.309Z,20.00
2018-07-03T22:16:40.445Z,19.90
2018-07-03T22:19:07.591Z,19.90
2018-07-03T22:21:35.555Z,19.90
2018-07-03T22:24:02.739Z,19.90
2018-07-03T22:26:29.913Z,19.90
2018-07-03T22:28:57.027Z,19.90
2018-07-03T22:31:24.144Z,20.00
2018-07-03T22:33:51.249Z,20.10
2018-07-03T22:36:18.366Z,20.20
2018-07-03T22:38:45.590Z,20.20
2018-07-03T22:41:12.627Z,20.30
2018-07-03T22:43:39.746Z,20.40
2018-07-03T22:46:06.873Z,20.40
2018-07-03T22:48:33.995Z,20.40
2018-07-03T22:51:01.136Z,20.40
2018-07-03T22:53:28.297Z,20.30
2018-07-03T22:55:55.426Z,20.20
2018-07-03T22:58:22.593Z,20.20
2018-07-03T23:00:49.659Z,20.20
2018-07-03T23:03:16.777Z,20.10
2018-07-03T23:05:43.878Z,20.00
2018-07-03T23:08:11.007Z,20.00
2018-07-03T23:13:05.283Z,19.90
2018-07-03T23:15:32.587Z,19.90
2018-07-03T23:17:59.796Z,19.90
2018-07-03T23:20:26.906Z,19.90
2018-07-03T23:22:54.043Z,20.00
2018-07-03T23:25:21.307Z,20.00
2018-07-03T23:27:48.418Z,19.80
2018-07-03T23:30:15.566Z,19.70
2018-07-03T23:32:42.689Z,19.60
2018-07-03T23:35:09.847Z,19.50
2018-07-03T23:37:36.982Z,19.50
2018-07-03T23:40:04.149Z,19.50
2018-07-03T23:42:31.408Z,19.60
2018-07-03T23:44:58.599Z,19.60
2018-07-03T23:47:37.403Z,19.70
2018-07-03T23:50:16.159Z,19.70
2018-07-03T23:55:27.997Z,19.60
2018-07-03T23:58:06.716Z,19.60
